Portada
METAR-TAF:

METAR-TAF

Aeroports :

Dakar, Senegal

latitud: 14-44N, longitud: 017-30W, altitud: 27 m

Observació

L'informe es va fer fa 51 minuts, a les 00:00 UTC
Vent 4 kt del Nord/Nord-Oest
Temperatura 26°C
Humitat 84%
Pressió 1012 hPa
Visibilitat: 8000 m
Escasses núvols a una alçada de 1300 ft

METAR: GOOY 200000Z 34004KT 8000 FEW013 26/23 Q1012

Hora: 00:51 (00:51 UTC)

Pronòstic

L'informe es va fer fa 7 hores i 21 minuts, a les 17:30 UTC
Pronòstic vàlid del 19 a les 18 UTC al 20 a les 24 UTC
Vent 8 kt del Oest/Nord-Oest
Visibilitat 10 km o més
Núvols disperses a una alçada de 1300 ft

TAF: GOOY 191730Z 1918/2024 30008KT 9999 SCT013

Observacions i pronòstics meteorològics de més de 4000 aeroports (METAR i TAF).

Les estacions disponibles són els punts grocs i vermells al mapa.

Posi el ratolí al punt desitjat per veure el nom de l'estació.

Feu clic per veure les observacions i els pronòstics meteorològics.

Per canviar el mapa: feu clic els botons verds amb una creu de color negre per apropar; al botó verd amb un guió per allunyar la imatge; o en les fletxes verdes per a mapes adjacents.


METAR-TAF: